createdAt,value
2022-09-13T00:02:29.862Z,10.573788
2022-09-13T00:07:31.717Z,10.29366
2022-09-13T00:12:33.753Z,9.626988
2022-09-13T00:17:35.706Z,10.33293
2022-09-13T00:22:37.599Z,10.080062
2022-09-13T00:27:39.508Z,10.640538
2022-09-13T00:32:41.138Z,10.070346
2022-09-13T00:37:43.050Z,9.663736
2022-09-13T00:42:45.179Z,10.221728
2022-09-13T00:47:47.343Z,10.041226
2022-09-13T00:52:49.307Z,9.78278
2022-09-13T00:57:50.889Z,9.50679
2022-09-13T01:02:52.338Z,10.126078
2022-09-13T01:07:53.785Z,9.750404
2022-09-13T01:12:55.599Z,10.268392
2022-09-13T01:17:57.278Z,9.861496
2022-09-13T01:22:58.860Z,9.942806
2022-09-13T01:28:00.756Z,10.721466
2022-09-13T01:33:02.347Z,10.034604
2022-09-13T01:38:04.154Z,10.020926
2022-09-13T01:43:06.066Z,10.187016
2022-09-13T01:48:08.032Z,10.189838
2022-09-13T01:53:09.820Z,10.377506
2022-09-13T01:58:11.768Z,10.054346
2022-09-13T02:03:13.600Z,10.087566
2022-09-13T02:08:15.479Z,9.928532
2022-09-13T02:13:17.429Z,9.769822
2022-09-13T02:18:19.444Z,10.332658
2022-09-13T02:23:21.295Z,9.677466
2022-09-13T02:28:23.111Z,9.870316
2022-09-13T02:33:24.522Z,9.943578
2022-09-13T02:38:25.951Z,10.283834
2022-09-13T02:43:27.429Z,9.920184
2022-09-13T02:48:29.081Z,10.003038
2022-09-13T02:53:30.777Z,10.566446
2022-09-13T02:58:32.420Z,10.242786
2022-09-13T03:03:33.902Z,10.314122
2022-09-13T03:08:35.461Z,10.25029
2022-09-13T03:13:37.178Z,9.705594
2022-09-13T03:18:38.868Z,9.906072
2022-09-13T03:23:40.381Z,9.850574
2022-09-13T03:28:41.886Z,9.619646
2022-09-13T03:33:43.587Z,9.621858
2022-09-13T03:38:45.022Z,9.573754
2022-09-13T03:43:46.671Z,9.560958
2022-09-13T03:48:48.694Z,10.325764
2022-09-13T03:53:50.268Z,10.240588
2022-09-13T03:58:51.856Z,9.740254
2022-09-13T04:03:56.372Z,9.941814
2022-09-13T04:08:59.077Z,9.55241
2022-09-13T04:14:01.044Z,9.993284
2022-09-13T04:19:03.273Z,9.769374
2022-09-13T04:24:05.200Z,9.89884
2022-09-13T04:29:07.242Z,9.929738
2022-09-13T04:34:09.335Z,9.821454
2022-09-13T04:39:11.350Z,10.800778
2022-09-13T04:44:12.883Z,10.131694
2022-09-13T04:49:15.828Z,9.96681
2022-09-13T04:54:17.319Z,10.312792
2022-09-13T04:59:19.145Z,10.443154
2022-09-13T05:04:20.908Z,9.825416
2022-09-13T05:09:22.656Z,10.289684
2022-09-13T05:14:24.460Z,10.941562
2022-09-13T05:19:26.426Z,10.923026
2022-09-13T05:24:28.232Z,10.281622
2022-09-13T05:29:30.082Z,10.376948
2022-09-13T05:34:31.888Z,10.525236
2022-09-13T05:39:48.397Z,10.713242
2022-09-13T05:45:02.042Z,10.834432
2022-09-13T05:50:15.860Z,10.662926
2022-09-13T05:55:24.648Z,10.326198
2022-09-13T06:00:26.614Z,10.788268
2022-09-13T06:05:31.719Z,11.256784
2022-09-13T06:10:34.178Z,10.9617
2022-09-13T06:15:39.037Z,12.081946
2022-09-13T06:20:44.772Z,11.723426
2022-09-13T06:25:46.544Z,12.026948
2022-09-13T06:30:48.598Z,11.797894
2022-09-13T06:35:50.469Z,12.102856
2022-09-13T06:40:51.880Z,12.925114
2022-09-13T06:45:53.418Z,12.615132
2022-09-13T06:50:55.068Z,12.53613
2022-09-13T06:55:56.727Z,12.64223
2022-09-13T07:00:58.241Z,13.289484
2022-09-13T07:05:59.984Z,13.821464
2022-09-13T07:11:01.997Z,13.15763
2022-09-13T07:16:03.978Z,13.653582
2022-09-13T07:21:05.751Z,13.410306
2022-09-13T07:26:07.734Z,13.125754
2022-09-13T07:31:09.847Z,13.324792
2022-09-13T07:36:11.695Z,14.384438
2022-09-13T07:41:13.554Z,15.236306
2022-09-13T07:46:15.208Z,15.845796
2022-09-13T07:51:17.211Z,15.252358
2022-09-13T07:56:19.093Z,17.123328
2022-09-13T08:01:20.981Z,15.464912
2022-09-13T08:06:22.837Z,16.241416
2022-09-13T08:11:24.576Z,15.687534
2022-09-13T08:16:26.448Z,17.872924
2022-09-13T08:21:28.719Z,18.372976
2022-09-13T08:26:30.479Z,16.001506
2022-09-13T08:31:32.367Z,17.703006
2022-09-13T08:36:34.304Z,18.39329
2022-09-13T08:41:36.086Z,19.220138
2022-09-13T08:46:37.899Z,19.676062
2022-09-13T08:51:40.070Z,20.399198
2022-09-13T08:56:41.823Z,19.25147
2022-09-13T09:01:43.827Z,18.470446
2022-09-13T09:06:45.493Z,20.429648
2022-09-13T09:11:47.258Z,20.8956
2022-09-13T09:16:49.024Z,20.097682
2022-09-13T09:21:51.076Z,21.229534
2022-09-13T09:26:52.576Z,20.791942
2022-09-13T09:31:54.094Z,20.95878
2022-09-13T09:36:55.748Z,21.899288
2022-09-13T09:41:57.177Z,21.432318
2022-09-13T09:46:58.701Z,20.5253
2022-09-13T09:52:00.438Z,20.62908
2022-09-13T09:57:01.997Z,21.705962
2022-09-13T10:02:03.721Z,21.499216
2022-09-13T10:07:05.211Z,21.880942
2022-09-13T10:12:06.724Z,22.563058
2022-09-13T10:17:08.446Z,22.136688
2022-09-13T10:22:10.589Z,21.74412
2022-09-13T10:27:12.385Z,22.815778
2022-09-13T10:32:14.357Z,22.102262
2022-09-13T10:37:16.007Z,22.15346
2022-09-13T10:42:17.716Z,22.808912
2022-09-13T10:47:19.525Z,22.405922
2022-09-13T10:52:21.354Z,22.186122
2022-09-13T10:57:23.035Z,21.274938
2022-09-13T11:02:24.861Z,22.904686
2022-09-13T11:07:26.618Z,21.988888
2022-09-13T11:12:28.386Z,22.499498
2022-09-13T11:17:30.083Z,23.0349
2022-09-13T11:22:31.927Z,22.668114
2022-09-13T11:27:34.087Z,22.87889
2022-09-13T11:32:35.947Z,22.547616
2022-09-13T11:37:37.703Z,22.30221
2022-09-13T11:42:39.550Z,22.764322
2022-09-13T11:47:41.457Z,22.54193
2022-09-13T11:52:43.645Z,22.95431
2022-09-13T11:57:45.510Z,23.411144
2022-09-13T12:02:47.415Z,23.960862
2022-09-13T12:07:49.452Z,23.636888
2022-09-13T12:12:51.108Z,22.97134
2022-09-13T12:17:52.893Z,23.453074
2022-09-13T12:22:54.531Z,22.578256
2022-09-13T12:27:55.967Z,22.285872
2022-09-13T12:32:59.098Z,22.266006
2022-09-13T12:38:00.784Z,22.778014
2022-09-13T12:43:02.243Z,22.34722
2022-09-13T12:48:03.753Z,22.761188
2022-09-13T12:53:05.433Z,22.847246
2022-09-13T12:58:06.899Z,21.675892
2022-09-13T13:03:08.497Z,21.96871
2022-09-13T13:08:11.367Z,22.963578
2022-09-13T13:13:12.892Z,22.980988
2022-09-13T13:18:14.560Z,23.187368
2022-09-13T13:23:16.392Z,22.1952
2022-09-13T13:28:18.070Z,23.715456
2022-09-13T13:33:19.754Z,22.628572
2022-09-13T13:38:21.617Z,21.593606
2022-09-13T13:43:23.325Z,21.462958
2022-09-13T13:48:25.365Z,22.459088
2022-09-13T13:53:27.025Z,21.887252
2022-09-13T13:58:28.467Z,21.057974
2022-09-13T14:03:29.930Z,21.235844
2022-09-13T14:08:31.447Z,20.773908
2022-09-13T14:13:32.935Z,21.107218
2022-09-13T14:18:34.393Z,21.345242
2022-09-13T14:23:36.066Z,21.414596
2022-09-13T14:28:37.490Z,20.584382
2022-09-13T14:33:39.094Z,20.470506
2022-09-13T14:38:40.718Z,20.832936
2022-09-13T14:43:42.407Z,20.487346
2022-09-13T14:48:43.868Z,20.141742
2022-09-13T14:53:45.659Z,20.242822
2022-09-13T14:58:47.268Z,20.378314
2022-09-13T15:03:48.877Z,20.536766
2022-09-13T15:08:50.344Z,20.468362
2022-09-13T15:13:51.898Z,20.166466
2022-09-13T15:18:53.431Z,19.877624
2022-09-13T15:23:55.095Z,19.627808
2022-09-13T15:28:56.614Z,20.21035
2022-09-13T15:33:58.533Z,19.8215
2022-09-13T15:39:00.185Z,19.457008
2022-09-13T15:44:01.833Z,19.091362
2022-09-13T15:49:03.343Z,19.711546
2022-09-13T15:54:05.357Z,19.122518
2022-09-13T15:59:07.077Z,19.20517
2022-09-13T16:04:08.983Z,18.978816
2022-09-13T16:09:10.434Z,18.349622
2022-09-13T16:14:12.256Z,18.710912
2022-09-13T16:19:13.823Z,18.906246
2022-09-13T16:24:15.610Z,18.189664
2022-09-13T16:29:17.061Z,18.138466
2022-09-13T16:34:18.580Z,18.290296
2022-09-13T16:39:20.028Z,18.191876
2022-09-13T16:44:21.490Z,18.277418
2022-09-13T16:49:23.019Z,18.178632
2022-09-13T16:54:24.646Z,18.321452
2022-09-13T16:59:26.085Z,17.681036
2022-09-13T17:04:27.805Z,18.309972
2022-09-13T17:09:29.529Z,18.014888
2022-09-13T17:14:31.176Z,17.255576
2022-09-13T17:19:32.626Z,17.642906
2022-09-13T17:24:34.362Z,17.045302
2022-09-13T17:29:36.518Z,17.009302
2022-09-13T17:34:38.539Z,17.046184
2022-09-13T17:39:40.262Z,17.223606
2022-09-13T17:44:41.867Z,17.04442
2022-09-13T17:49:43.902Z,17.352924
2022-09-13T17:54:45.880Z,16.991458
2022-09-13T17:59:47.644Z,17.105768
2022-09-13T18:04:49.425Z,16.375332
2022-09-13T18:09:51.468Z,17.02659
2022-09-13T18:14:53.235Z,16.88183
2022-09-13T18:19:54.758Z,16.286004
2022-09-13T18:24:56.559Z,16.123318
2022-09-13T18:29:58.057Z,16.405172
2022-09-13T18:34:59.825Z,16.53563
2022-09-13T18:40:01.470Z,15.43005
2022-09-13T18:45:03.250Z,15.02295
2022-09-13T18:50:05.110Z,15.169122
2022-09-13T18:55:07.130Z,16.06497
2022-09-13T19:00:08.676Z,15.858862
2022-09-13T19:05:10.291Z,15.543912
2022-09-13T19:10:15.878Z,15.67376
2022-09-13T19:15:17.821Z,15.837856
2022-09-13T19:20:19.377Z,15.435342
2022-09-13T19:25:21.132Z,15.560156
2022-09-13T19:30:22.707Z,15.274516
2022-09-13T19:35:24.554Z,15.545242
2022-09-13T19:40:26.708Z,15.079888
2022-09-13T19:45:28.752Z,15.166218
2022-09-13T19:50:30.719Z,14.750908
2022-09-13T19:55:32.376Z,15.0166
2022-09-13T20:00:33.956Z,14.887554
2022-09-13T20:05:35.529Z,14.273382
2022-09-13T20:10:37.118Z,14.252458
2022-09-13T20:15:38.630Z,14.39563
2022-09-13T20:20:40.389Z,12.742672
2022-09-13T20:25:42.068Z,13.300692
2022-09-13T20:30:43.880Z,13.368824
2022-09-13T20:35:45.663Z,13.842374
2022-09-13T20:40:47.440Z,12.766676
2022-09-13T20:45:49.276Z,13.54105
2022-09-13T20:50:51.176Z,12.93411
2022-09-13T20:55:53.322Z,13.388242
2022-09-13T21:00:54.786Z,13.611556
2022-09-13T21:05:56.453Z,13.769994
2022-09-13T21:10:57.886Z,13.404132
2022-09-13T21:15:59.426Z,13.3525
2022-09-13T21:21:01.014Z,13.546246
2022-09-13T21:26:02.647Z,12.863942
2022-09-13T21:31:04.745Z,13.016368
2022-09-13T21:36:06.432Z,13.226452
2022-09-13T21:41:08.109Z,13.271638
2022-09-13T21:46:09.846Z,13.053168
2022-09-13T21:51:11.599Z,13.12274
2022-09-13T21:56:13.359Z,13.178076
2022-09-13T22:01:14.898Z,13.13023
2022-09-13T22:06:16.705Z,13.036506
2022-09-13T22:11:18.704Z,12.628986
2022-09-13T22:16:20.418Z,12.372738
2022-09-13T22:21:22.138Z,12.798618
2022-09-13T22:26:24.457Z,12.71511
2022-09-13T22:31:26.146Z,13.2954
2022-09-13T22:36:27.855Z,13.156108
2022-09-13T22:41:29.521Z,12.927488
2022-09-13T22:46:30.978Z,12.520482
2022-09-13T22:51:32.675Z,12.975592
2022-09-13T22:56:34.647Z,12.355804
2022-09-13T23:01:36.500Z,12.307252
2022-09-13T23:06:38.449Z,12.242824
2022-09-13T23:11:40.403Z,11.955788
2022-09-13T23:16:42.436Z,12.484226
2022-09-13T23:21:44.407Z,12.531286
2022-09-13T23:31:57.113Z,11.983592
2022-09-13T23:36:59.471Z,11.856662
2022-09-13T23:47:11.594Z,11.518604
2022-09-13T23:52:13.227Z,11.534928
2022-09-13T23:57:14.704Z,11.944484
